Time;durP1;ratioP1;P1;durP2;ratioP2;P2;SDS_P1;SDS_P2;PMS_P1;PMS_P2;Temp;Humidity;BMP_temperature;BMP_pressure;BME280_temperature;BME280_humidity;BME280_pressure;Samples;Min_cycle;Max_cycle;Signal;HPM_P1;HPM_P2
2023/03/03 00:00:34;;;;;;;5.53;3.05;;;;;;;;;;4984363;28;20051;-64
2023/03/03 00:03:04;;;;;;;9.05;4.03;;;;;;;;;;4986822;28;20492;-64
2023/03/03 00:05:33;;;;;;;10.00;4.28;;;;;;;;;;4989417;28;20072;-66
2023/03/03 00:08:02;;;;;;;7.43;4.47;;;;;;;;;;4986274;28;20050;-64
2023/03/03 00:10:30;;;;;;;8.20;3.05;;;;;;;;;;4990939;28;20138;-66
2023/03/03 00:12:59;;;;;;;26.45;4.20;;;;;;;;;;4990089;28;20060;-65
2023/03/03 00:15:29;;;;;;;12.43;3.70;;;;;;;;;;4992321;28;20427;-62
2023/03/03 00:17:58;;;;;;;6.30;4.22;;;;;;;;;;4984668;28;20050;-64
2023/03/03 00:20:29;;;;;;;9.48;3.42;;;;;;;;;;4986202;28;20492;-65
2023/03/03 00:23:04;;;;;;;12.52;3.38;;;;;;;;;;4984254;28;20404;-65
2023/03/03 00:25:34;;;;;;;6.93;2.50;;;;;;;;;;4986344;28;20046;-61
2023/03/03 00:28:08;;;;;;;5.55;2.25;;;;;;;;;;4982235;28;20038;-64
2023/03/03 00:30:38;;;;;;;7.85;3.15;;;;;;;;;;4983728;28;20047;-65
2023/03/03 00:33:12;;;;;;;13.75;3.83;;;;;;;;;;4979532;28;20122;-65
2023/03/03 00:35:41;;;;;;;22.15;3.85;;;;;;;;;;4989689;28;20042;-64
2023/03/03 00:38:13;;;;;;;9.43;2.85;;;;;;;;;;4990579;28;20051;-66
2023/03/03 00:40:41;;;;;;;3.20;2.83;;;;;;;;;;4990264;28;20050;-64
2023/03/03 00:43:15;;;;;;;11.38;3.42;;;;;;;;;;4990987;28;20050;-65
2023/03/03 00:45:46;;;;;;;4.03;3.60;;;;;;;;;;4992022;28;20415;-64
2023/03/03 00:48:22;;;;;;;8.38;3.28;;;;;;;;;;4985239;28;20038;-65
2023/03/03 00:50:51;;;;;;;5.65;3.08;;;;;;;;;;4982300;28;20061;-65
2023/03/03 00:53:20;;;;;;;8.02;3.00;;;;;;;;;;4989363;28;20424;-65
2023/03/03 00:55:49;;;;;;;6.75;2.90;;;;;;;;;;4990892;28;20050;-61
2023/03/03 00:58:20;;;;;;;16.13;3.33;;;;;;;;;;4989988;28;20062;-65
2023/03/03 01:00:50;;;;;;;4.30;2.50;;;;;;;;;;4988050;28;20463;-61
2023/03/03 01:03:19;;;;;;;6.43;4.63;;;;;;;;;;4986419;28;20491;-65
2023/03/03 01:05:48;;;;;;;8.77;4.45;;;;;;;;;;4984707;28;20043;-64
2023/03/03 01:08:16;;;;;;;3.78;2.90;;;;;;;;;;4989569;28;20077;-65
2023/03/03 01:10:47;;;;;;;4.63;2.97;;;;;;;;;;4986953;28;20051;-64
2023/03/03 01:13:15;;;;;;;13.75;5.05;;;;;;;;;;4987585;28;20046;-66
2023/03/03 01:15:43;;;;;;;4.55;2.25;;;;;;;;;;4987196;28;20455;-65
2023/03/03 01:18:13;;;;;;;7.15;4.60;;;;;;;;;;4991511;28;20059;-65
2023/03/03 01:20:42;;;;;;;5.82;2.55;;;;;;;;;;4985956;28;20053;-65
2023/03/03 01:23:10;;;;;;;10.65;3.42;;;;;;;;;;4982700;28;20046;-64
2023/03/03 01:25:39;;;;;;;10.85;4.10;;;;;;;;;;4987687;28;20050;-65
2023/03/03 01:28:07;;;;;;;5.22;2.25;;;;;;;;;;4983862;28;20049;-65
2023/03/03 01:30:36;;;;;;;4.65;2.45;;;;;;;;;;4990018;28;20110;-65
2023/03/03 01:33:05;;;;;;;5.15;2.72;;;;;;;;;;4982292;28;20443;-63
2023/03/03 01:35:35;;;;;;;5.78;2.45;;;;;;;;;;4981358;28;20043;-65
2023/03/03 01:38:04;;;;;;;10.32;2.67;;;;;;;;;;4988890;28;20463;-65
2023/03/03 01:40:33;;;;;;;8.52;1.95;;;;;;;;;;4987926;28;20053;-65
2023/03/03 01:43:01;;;;;;;6.88;2.30;;;;;;;;;;4990956;28;20050;-65
2023/03/03 01:45:30;;;;;;;7.80;5.10;;;;;;;;;;4985214;28;20141;-61
2023/03/03 01:48:04;;;;;;;4.38;3.38;;;;;;;;;;4986937;28;20066;-65
2023/03/03 01:50:37;;;;;;;5.03;2.80;;;;;;;;;;4984960;28;20042;-65
2023/03/03 01:53:07;;;;;;;8.15;2.13;;;;;;;;;;4991197;28;20050;-63
2023/03/03 01:55:37;;;;;;;2.80;2.58;;;;;;;;;;4984180;28;20053;-64
2023/03/03 01:58:07;;;;;;;5.00;2.92;;;;;;;;;;4984414;28;20508;-65
2023/03/03 02:00:37;;;;;;;2.78;2.38;;;;;;;;;;4989708;28;20057;-65
2023/03/03 02:03:05;;;;;;;6.63;2.40;;;;;;;;;;4985553;28;20509;-64
2023/03/03 02:05:36;;;;;;;2.90;2.63;;;;;;;;;;4984029;28;20061;-64
2023/03/03 02:08:04;;;;;;;3.92;1.90;;;;;;;;;;4989133;28;20046;-64
2023/03/03 02:10:33;;;;;;;3.10;2.85;;;;;;;;;;4987460;28;20046;-65
2023/03/03 02:13:01;;;;;;;4.32;2.05;;;;;;;;;;4988194;28;20084;-65
2023/03/03 02:15:31;;;;;;;12.45;3.75;;;;;;;;;;4988000;28;20046;-65
2023/03/03 02:18:01;;;;;;;6.03;2.10;;;;;;;;;;4982480;28;20105;-65
2023/03/03 02:20:36;;;;;;;4.85;2.95;;;;;;;;;;4979002;28;20069;-65
2023/03/03 02:23:10;;;;;;;3.47;2.38;;;;;;;;;;4987403;28;20514;-63
2023/03/03 02:25:44;;;;;;;5.43;2.38;;;;;;;;;;4983207;28;20073;-64
2023/03/03 02:28:14;;;;;;;3.50;1.90;;;;;;;;;;4983659;28;20051;-66
2023/03/03 02:30:43;;;;;;;8.55;2.47;;;;;;;;;;4988827;28;20050;-65
2023/03/03 02:33:11;;;;;;;10.52;2.67;;;;;;;;;;4983934;28;20089;-65
2023/03/03 02:35:41;;;;;;;4.20;3.22;;;;;;;;;;4983089;28;20125;-64
2023/03/03 02:38:16;;;;;;;8.20;1.05;;;;;;;;;;4982733;28;20129;-65
2023/03/03 02:40:48;;;;;;;3.85;2.83;;;;;;;;;;4982987;28;20050;-65
2023/03/03 02:43:20;;;;;;;6.28;3.05;;;;;;;;;;4984627;28;20451;-65
2023/03/03 02:45:48;;;;;;;5.03;2.75;;;;;;;;;;4988808;28;20057;-65
2023/03/03 02:48:17;;;;;;;2.83;1.52;;;;;;;;;;4984871;28;20050;-65
2023/03/03 02:50:45;;;;;;;5.53;1.48;;;;;;;;;;4983289;28;20053;-64
2023/03/03 02:53:14;;;;;;;3.78;2.53;;;;;;;;;;4988134;28;20396;-63
2023/03/03 02:55:42;;;;;;;12.82;3.33;;;;;;;;;;4988063;28;20054;-65
2023/03/03 02:58:11;;;;;;;7.75;3.50;;;;;;;;;;4980815;28;20113;-62
2023/03/03 03:00:40;;;;;;;7.45;3.67;;;;;;;;;;4985760;28;20507;-65
2023/03/03 03:03:09;;;;;;;11.05;2.80;;;;;;;;;;4987628;28;20043;-64
2023/03/03 03:05:37;;;;;;;2.75;1.65;;;;;;;;;;4985018;28;20483;-65
2023/03/03 03:08:05;;;;;;;2.22;2.05;;;;;;;;;;4981398;28;20061;-64
2023/03/03 03:10:34;;;;;;;7.07;4.97;;;;;;;;;;4985467;28;20058;-65
2023/03/03 03:13:02;;;;;;;17.35;4.55;;;;;;;;;;4985887;28;20047;-65
2023/03/03 03:15:31;;;;;;;12.48;3.22;;;;;;;;;;4983224;28;20385;-60
2023/03/03 03:18:00;;;;;;;4.85;3.13;;;;;;;;;;4984700;28;20042;-66
2023/03/03 03:20:29;;;;;;;10.88;4.07;;;;;;;;;;4983605;28;20050;-66
2023/03/03 03:22:57;;;;;;;8.75;2.90;;;;;;;;;;4984972;28;20049;-65
2023/03/03 03:25:26;;;;;;;5.28;2.70;;;;;;;;;;4983992;28;20503;-65
2023/03/03 03:27:54;;;;;;;8.77;3.45;;;;;;;;;;4981711;28;20514;-60
2023/03/03 03:30:23;;;;;;;4.30;2.15;;;;;;;;;;4982070;28;20086;-62
2023/03/03 03:32:51;;;;;;;11.63;3.38;;;;;;;;;;4979586;28;20507;-65
2023/03/03 03:35:21;;;;;;;4.78;1.58;;;;;;;;;;4987012;28;20058;-65
2023/03/03 03:37:49;;;;;;;5.93;3.40;;;;;;;;;;4988839;28;20115;-65
2023/03/03 03:40:18;;;;;;;5.55;4.40;;;;;;;;;;4983271;28;20058;-65
2023/03/03 03:42:47;;;;;;;8.77;4.53;;;;;;;;;;4987029;28;20468;-66
2023/03/03 03:45:15;;;;;;;5.55;2.88;;;;;;;;;;4989223;28;20062;-65
2023/03/03 03:47:44;;;;;;;7.15;4.13;;;;;;;;;;4989108;28;20411;-63
2023/03/03 03:50:13;;;;;;;11.27;4.10;;;;;;;;;;4989851;28;20089;-65
2023/03/03 03:52:43;;;;;;;6.63;2.55;;;;;;;;;;4988267;28;20149;-66
2023/03/03 03:55:11;;;;;;;15.02;4.05;;;;;;;;;;4993899;28;20043;-66
2023/03/03 03:57:40;;;;;;;8.50;3.72;;;;;;;;;;4984776;28;20454;-65
2023/03/03 04:00:09;;;;;;;4.63;4.00;;;;;;;;;;4990350;28;20065;-64
2023/03/03 04:02:37;;;;;;;10.27;3.45;;;;;;;;;;4979467;28;20053;-65
2023/03/03 04:05:06;;;;;;;6.28;2.75;;;;;;;;;;4993337;28;20455;-65
2023/03/03 04:07:34;;;;;;;18.38;3.47;;;;;;;;;;4993406;28;20046;-61
2023/03/03 04:10:04;;;;;;;10.52;4.15;;;;;;;;;;4991287;28;20239;-65
2023/03/03 04:12:37;;;;;;;9.15;3.90;;;;;;;;;;4985612;28;20471;-65
2023/03/03 04:15:06;;;;;;;10.77;3.53;;;;;;;;;;4992632;28;20395;-64
2023/03/03 04:17:34;;;;;;;3.15;2.53;;;;;;;;;;4991142;28;20050;-65
2023/03/03 04:20:02;;;;;;;5.13;3.70;;;;;;;;;;4989366;28;20042;-62
2023/03/03 04:22:32;;;;;;;9.02;2.60;;;;;;;;;;4989858;28;20050;-65
2023/03/03 04:25:04;;;;;;;13.98;3.88;;;;;;;;;;4989526;28;20506;-65
2023/03/03 04:27:33;;;;;;;8.15;4.65;;;;;;;;;;4983735;28;20066;-65
2023/03/03 04:30:02;;;;;;;7.07;3.28;;;;;;;;;;4987596;28;20053;-63
2023/03/03 04:32:32;;;;;;;4.53;1.98;;;;;;;;;;4984906;28;20058;-66
2023/03/03 04:35:01;;;;;;;5.70;3.83;;;;;;;;;;4994588;28;20142;-65
2023/03/03 04:37:36;;;;;;;;;;;;;;;;;;4990639;28;20137;-64
2023/03/03 04:40:04;;;;;;;5.50;2.95;;;;;;;;;;4980379;28;20025;-65
2023/03/03 04:42:34;;;;;;;7.70;2.65;;;;;;;;;;4986411;28;20073;-64
2023/03/03 04:45:02;;;;;;;10.15;4.32;;;;;;;;;;4993333;28;20057;-65
2023/03/03 04:47:32;;;;;;;13.40;4.95;;;;;;;;;;4987986;28;20069;-65
2023/03/03 04:50:00;;;;;;;5.47;3.45;;;;;;;;;;4990853;28;20242;-65
2023/03/03 04:52:29;;;;;;;7.15;2.30;;;;;;;;;;4989724;28;20388;-64
2023/03/03 04:54:57;;;;;;;8.52;3.85;;;;;;;;;;4981931;28;20054;-64
2023/03/03 04:57:25;;;;;;;12.95;3.72;;;;;;;;;;4985908;28;20061;-65
2023/03/03 04:59:55;;;;;;;3.95;2.53;;;;;;;;;;4989710;28;20050;-62
2023/03/03 05:02:23;;;;;;;6.18;3.70;;;;;;;;;;4984485;28;20054;-62
2023/03/03 05:04:51;;;;;;;17.02;6.13;;;;;;;;;;4991657;28;20051;-65
2023/03/03 05:07:20;;;;;;;16.67;6.72;;;;;;;;;;4983196;28;20061;-65
2023/03/03 05:09:48;;;;;;;6.90;2.35;;;;;;;;;;4987976;28;20042;-64
2023/03/03 05:12:16;;;;;;;10.25;3.15;;;;;;;;;;4980347;28;20047;-60
2023/03/03 05:14:45;;;;;;;9.63;3.75;;;;;;;;;;4989825;28;20057;-66
2023/03/03 05:17:14;;;;;;;11.00;3.92;;;;;;;;;;4986321;28;20050;-63
2023/03/03 05:19:43;;;;;;;10.80;5.80;;;;;;;;;;4989069;28;20050;-66
2023/03/03 05:22:11;;;;;;;11.15;4.63;;;;;;;;;;4984004;28;20451;-65
2023/03/03 05:24:41;;;;;;;19.58;3.65;;;;;;;;;;4981517;28;20050;-65
2023/03/03 05:27:10;;;;;;;6.45;3.38;;;;;;;;;;4985105;28;20395;-65
2023/03/03 05:29:39;;;;;;;6.82;2.60;;;;;;;;;;4988224;28;20526;-63
2023/03/03 05:32:07;;;;;;;17.35;4.95;;;;;;;;;;4982051;28;20070;-65
2023/03/03 05:34:36;;;;;;;19.85;4.30;;;;;;;;;;4982213;28;20452;-64
2023/03/03 05:37:05;;;;;;;12.13;5.45;;;;;;;;;;4979929;28;20943;-64
2023/03/03 05:39:34;;;;;;;12.32;6.38;;;;;;;;;;4987081;28;20066;-64
2023/03/03 05:42:02;;;;;;;13.38;4.03;;;;;;;;;;4991275;28;20073;-64
2023/03/03 05:44:30;;;;;;;9.95;4.22;;;;;;;;;;4988290;28;20153;-65
2023/03/03 05:46:59;;;;;;;9.18;3.00;;;;;;;;;;4976717;28;20046;-65
2023/03/03 05:49:27;;;;;;;6.93;3.28;;;;;;;;;;4982834;28;20105;-65
2023/03/03 05:51:58;;;;;;;5.43;3.03;;;;;;;;;;4988643;28;20371;-64
2023/03/03 05:54:26;;;;;;;6.13;3.35;;;;;;;;;;4981262;28;20073;-61
2023/03/03 05:56:56;;;;;;;12.68;5.25;;;;;;;;;;4983934;28;20054;-65
2023/03/03 05:59:24;;;;;;;10.38;3.70;;;;;;;;;;4986754;28;20085;-65
2023/03/03 06:01:52;;;;;;;12.00;3.88;;;;;;;;;;4983116;28;20591;-63
2023/03/03 06:04:21;;;;;;;5.13;3.38;;;;;;;;;;4983357;28;20089;-60
2023/03/03 06:06:49;;;;;;;10.80;3.45;;;;;;;;;;4987804;28;20046;-65
2023/03/03 06:09:19;;;;;;;9.35;4.22;;;;;;;;;;4990408;28;20486;-66
2023/03/03 06:11:48;;;;;;;10.43;6.05;;;;;;;;;;4980735;28;20385;-63
2023/03/03 06:14:16;;;;;;;18.33;5.18;;;;;;;;;;4977059;28;20057;-65
2023/03/03 06:16:44;;;;;;;15.23;3.97;;;;;;;;;;4985325;28;20047;-65
2023/03/03 06:19:13;;;;;;;12.18;4.97;;;;;;;;;;4986575;28;20389;-65
2023/03/03 06:21:41;;;;;;;11.30;5.50;;;;;;;;;;4986841;28;20057;-65
2023/03/03 06:24:10;;;;;;;13.63;4.55;;;;;;;;;;4983402;28;20046;-64
2023/03/03 06:26:39;;;;;;;14.18;3.97;;;;;;;;;;4985763;28;20498;-63
2023/03/03 06:29:08;;;;;;;6.80;3.75;;;;;;;;;;4985145;28;20418;-63
2023/03/03 06:31:36;;;;;;;7.15;3.10;;;;;;;;;;4977504;28;20106;-64
2023/03/03 06:34:04;;;;;;;11.48;2.70;;;;;;;;;;4986893;28;20097;-67
2023/03/03 06:36:33;;;;;;;5.45;2.72;;;;;;;;;;4987690;28;20047;-66
2023/03/03 06:39:01;;;;;;;13.60;3.95;;;;;;;;;;4984471;28;20046;-67
2023/03/03 06:41:29;;;;;;;12.45;4.07;;;;;;;;;;4987545;28;20056;-67
2023/03/03 06:43:59;;;;;;;10.05;5.22;;;;;;;;;;4991233;28;20081;-67
2023/03/03 06:46:28;;;;;;;11.02;4.93;;;;;;;;;;4981371;28;20042;-69
2023/03/03 06:48:56;;;;;;;8.93;3.63;;;;;;;;;;4987830;28;20052;-66
2023/03/03 06:51:27;;;;;;;9.85;4.50;;;;;;;;;;4990613;28;20049;-67
2023/03/03 06:53:56;;;;;;;11.75;3.80;;;;;;;;;;4976007;28;20053;-67
2023/03/03 06:56:25;;;;;;;7.95;3.72;;;;;;;;;;4980565;28;20500;-66
2023/03/03 06:58:55;;;;;;;10.38;4.40;;;;;;;;;;4981324;28;20792;-67
2023/03/03 07:01:25;;;;;;;16.15;4.03;;;;;;;;;;4987975;28;20388;-65
2023/03/03 07:03:54;;;;;;;11.95;4.60;;;;;;;;;;4983288;28;20089;-66
2023/03/03 07:06:24;;;;;;;18.70;4.35;;;;;;;;;;4988196;28;20109;-67
2023/03/03 07:08:52;;;;;;;3.88;2.50;;;;;;;;;;4983629;28;20053;-68
2023/03/03 07:11:22;;;;;;;8.85;5.47;;;;;;;;;;4978632;28;20073;-67
2023/03/03 07:13:51;;;;;;;15.93;4.65;;;;;;;;;;4985642;28;20043;-67
2023/03/03 07:16:20;;;;;;;13.10;4.47;;;;;;;;;;4976972;28;20050;-66
2023/03/03 07:18:52;;;;;;;18.85;4.88;;;;;;;;;;4978969;28;20058;-65
2023/03/03 07:21:21;;;;;;;8.30;4.47;;;;;;;;;;4987550;28;20058;-66
2023/03/03 07:23:50;;;;;;;18.25;3.70;;;;;;;;;;4986701;28;20084;-64
2023/03/03 07:26:21;;;;;;;17.90;4.95;;;;;;;;;;4985640;28;20324;-67
2023/03/03 07:28:53;;;;;;;7.32;4.75;;;;;;;;;;4980432;28;20050;-67
2023/03/03 07:31:32;;;;;;;8.07;5.15;;;;;;;;;;4986984;28;20042;-67
2023/03/03 07:34:02;;;;;;;7.32;3.67;;;;;;;;;;4982606;28;20057;-67
2023/03/03 07:36:31;;;;;;;13.68;4.65;;;;;;;;;;4979335;28;20054;-67
2023/03/03 07:39:01;;;;;;;9.85;4.80;;;;;;;;;;4989543;28;20054;-68
2023/03/03 07:41:31;;;;;;;10.10;4.35;;;;;;;;;;4986021;28;20661;-67
2023/03/03 07:44:03;;;;;;;14.93;4.28;;;;;;;;;;4989552;28;20525;-66
2023/03/03 07:46:37;;;;;;;9.68;4.38;;;;;;;;;;4981419;28;20120;-67
2023/03/03 07:49:12;;;;;;;11.23;3.53;;;;;;;;;;4987433;28;20046;-67
2023/03/03 07:51:41;;;;;;;14.25;5.00;;;;;;;;;;4980608;28;20133;-68
2023/03/03 07:54:17;;;;;;;15.27;3.75;;;;;;;;;;4990635;28;20051;-67
2023/03/03 07:56:45;;;;;;;3.83;2.85;;;;;;;;;;4981764;28;20123;-67
2023/03/03 07:59:19;;;;;;;14.20;5.43;;;;;;;;;;4985848;28;20050;-61
2023/03/03 08:01:48;;;;;;;12.73;5.32;;;;;;;;;;4978379;28;20074;-67
2023/03/03 08:04:19;;;;;;;14.80;5.35;;;;;;;;;;4978102;28;20137;-64
2023/03/03 08:06:49;;;;;;;13.35;4.75;;;;;;;;;;4979291;28;20050;-65
2023/03/03 08:09:35;;;;;;;17.98;5.22;;;;;;;;;;4978544;28;20117;-63
2023/03/03 08:12:17;;;;;;;12.38;3.05;;;;;;;;;;4968604;28;20466;-64
2023/03/03 08:14:45;;;;;;;13.35;3.60;;;;;;;;;;4982735;28;20238;-66
2023/03/03 08:17:16;;;;;;;13.05;5.95;;;;;;;;;;4988476;28;20451;-64
2023/03/03 08:19:46;;;;;;;11.32;4.53;;;;;;;;;;4990638;28;20050;-65
2023/03/03 08:22:16;;;;;;;15.90;5.07;;;;;;;;;;4989873;28;20054;-65
2023/03/03 08:24:45;;;;;;;15.25;4.53;;;;;;;;;;4983029;28;20042;-63
2023/03/03 08:27:13;;;;;;;17.98;5.93;;;;;;;;;;4989900;28;20129;-64
2023/03/03 08:29:41;;;;;;;18.52;6.40;;;;;;;;;;4988512;28;20055;-65
2023/03/03 08:32:10;;;;;;;11.27;4.95;;;;;;;;;;4987106;28;20141;-65
2023/03/03 08:34:38;;;;;;;17.83;5.63;;;;;;;;;;4987643;28;20109;-65
2023/03/03 08:37:08;;;;;;;18.90;6.10;;;;;;;;;;4981397;28;20054;-61
2023/03/03 08:39:37;;;;;;;16.75;5.68;;;;;;;;;;4989051;28;20054;-64
2023/03/03 08:42:05;;;;;;;12.02;7.05;;;;;;;;;;4986975;28;20054;-66
2023/03/03 08:44:34;;;;;;;10.18;5.93;;;;;;;;;;4993802;28;20947;-65
2023/03/03 08:47:02;;;;;;;18.83;5.90;;;;;;;;;;4982212;28;20138;-65
2023/03/03 08:49:31;;;;;;;16.17;7.07;;;;;;;;;;4988779;28;20101;-65
2023/03/03 08:52:00;;;;;;;14.65;5.93;;;;;;;;;;4982625;28;20138;-66
2023/03/03 08:54:30;;;;;;;19.10;5.93;;;;;;;;;;4992728;28;20069;-66
2023/03/03 08:56:58;;;;;;;13.90;5.55;;;;;;;;;;4988810;28;20042;-66
2023/03/03 08:59:27;;;;;;;19.52;5.75;;;;;;;;;;4988847;28;20085;-66
2023/03/03 09:01:56;;;;;;;11.57;5.57;;;;;;;;;;4982667;28;20114;-66
2023/03/03 09:04:25;;;;;;;14.15;5.07;;;;;;;;;;4988044;28;20054;-66
2023/03/03 09:06:53;;;;;;;25.08;7.40;;;;;;;;;;4988664;28;20042;-65
2023/03/03 09:09:22;;;;;;;25.02;6.25;;;;;;;;;;4993529;28;20056;-66
2023/03/03 09:11:54;;;;;;;19.55;6.13;;;;;;;;;;4983998;28;20869;-63
2023/03/03 09:14:23;;;;;;;12.38;5.70;;;;;;;;;;4993731;28;20054;-62
2023/03/03 09:16:52;;;;;;;30.05;7.85;;;;;;;;;;4989374;28;20065;-65
2023/03/03 09:19:23;;;;;;;21.00;6.72;;;;;;;;;;4993130;28;20054;-65
2023/03/03 09:21:53;;;;;;;18.35;6.25;;;;;;;;;;4988753;28;20511;-65
2023/03/03 09:24:26;;;;;;;25.30;6.78;;;;;;;;;;4998227;28;20053;-65
2023/03/03 09:26:58;;;;;;;18.50;6.50;;;;;;;;;;4985406;28;20380;-65
2023/03/03 09:29:28;;;;;;;26.60;7.55;;;;;;;;;;4990661;28;20491;-65
2023/03/03 09:31:57;;;;;;;25.58;7.07;;;;;;;;;;4988053;28;20133;-66
2023/03/03 09:34:38;;;;;;;16.08;5.88;;;;;;;;;;4988151;28;20050;-61
2023/03/03 09:37:16;;;;;;;12.32;6.13;;;;;;;;;;4987532;28;20073;-65
2023/03/03 09:39:45;;;;;;;11.02;5.70;;;;;;;;;;4988069;28;20097;-66
2023/03/03 09:42:32;;;;;;;23.70;7.57;;;;;;;;;;4982523;28;20054;-66
2023/03/03 09:45:19;;;;;;;23.02;6.57;;;;;;;;;;4986465;28;20050;-63
2023/03/03 09:47:54;;;;;;;16.00;6.10;;;;;;;;;;4986383;28;20046;-66
2023/03/03 09:50:23;;;;;;;;;;;;;;;;;;4991447;28;20089;-60
2023/03/03 09:52:57;;;;;;;24.48;6.57;;;;;;;;;;4991471;28;19922;-65
2023/03/03 09:55:31;;;;;;;21.13;5.25;;;;;;;;;;4986045;28;20461;-65
2023/03/03 09:58:14;;;;;;;17.17;6.30;;;;;;;;;;4985609;28;20566;-66
2023/03/03 10:00:50;;;;;;;10.60;5.28;;;;;;;;;;4988489;28;20046;-65
2023/03/03 10:03:45;;;;;;;20.35;7.18;;;;;;;;;;4992115;28;20137;-66
2023/03/03 10:06:18;;;;;;;15.40;5.45;;;;;;;;;;4986923;28;20129;-64
2023/03/03 10:08:58;;;;;;;15.05;6.18;;;;;;;;;;4987999;28;20101;-65
2023/03/03 10:11:30;;;;;;;22.63;6.45;;;;;;;;;;4986932;28;20054;-66
2023/03/03 10:14:05;;;;;;;15.55;6.25;;;;;;;;;;4991511;28;20133;-64
2023/03/03 10:16:57;;;;;;;13.57;5.28;;;;;;;;;;4991083;28;20057;-65
2023/03/03 10:19:33;;;;;;;23.75;4.72;;;;;;;;;;4990209;28;20081;-66
2023/03/03 10:22:06;;;;;;;26.85;7.53;;;;;;;;;;4990168;28;20108;-65
2023/03/03 10:24:41;;;;;;;11.50;6.70;;;;;;;;;;4991934;28;20205;-65
2023/03/03 10:27:19;;;;;;;15.73;6.68;;;;;;;;;;4987142;28;20133;-60
2023/03/03 10:29:55;;;;;;;20.83;7.57;;;;;;;;;;4983473;28;20052;-66
2023/03/03 10:32:38;;;;;;;12.75;7.45;;;;;;;;;;4988986;28;20058;-64
2023/03/03 10:35:22;;;;;;;17.00;6.80;;;;;;;;;;4951852;28;20108;-60
2023/03/03 10:37:58;;;;;;;14.43;4.88;;;;;;;;;;4970966;28;20133;-63
2023/03/03 10:40:31;;;;;;;22.38;6.80;;;;;;;;;;4961781;28;20046;-65
2023/03/03 10:43:13;;;;;;;22.38;8.77;;;;;;;;;;4995619;28;20112;-63
2023/03/03 10:46:12;;;;;;;14.95;4.72;;;;;;;;;;4991199;28;20042;-64
2023/03/03 10:48:50;;;;;;;21.25;6.70;;;;;;;;;;4989313;28;20056;-65
2023/03/03 10:51:23;;;;;;;15.52;6.35;;;;;;;;;;4989556;28;20192;-64
2023/03/03 10:53:59;;;;;;;15.20;6.78;;;;;;;;;;4988743;28;20050;-64
2023/03/03 10:56:34;;;;;;;19.77;6.28;;;;;;;;;;4986923;28;20100;-66
2023/03/03 10:59:30;;;;;;;15.05;4.93;;;;;;;;;;4991151;28;20089;-66
2023/03/03 11:01:59;;;;;;;19.95;7.05;;;;;;;;;;4987942;28;20495;-66
2023/03/03 11:04:49;;;;;;;15.25;6.68;;;;;;;;;;4985457;28;20061;-66
2023/03/03 11:07:20;;;;;;;31.75;5.63;;;;;;;;;;4983013;28;20105;-65
2023/03/03 11:09:58;;;;;;;34.30;6.60;;;;;;;;;;4988796;28;20503;-65
2023/03/03 11:12:35;;;;;;;23.05;7.00;;;;;;;;;;4980545;28;20133;-65
2023/03/03 11:15:09;;;;;;;24.85;7.97;;;;;;;;;;4981543;28;20074;-65
2023/03/03 11:17:45;;;;;;;31.95;9.82;;;;;;;;;;4987880;28;20046;-65
2023/03/03 11:20:23;;;;;;;19.90;7.63;;;;;;;;;;4986342;28;20046;-65
2023/03/03 11:22:59;;;;;;;19.27;6.72;;;;;;;;;;4984282;28;20168;-66
2023/03/03 11:25:54;;;;;;;21.95;6.30;;;;;;;;;;4978891;28;20051;-65
2023/03/03 11:28:30;;;;;;;14.25;5.78;;;;;;;;;;4986081;28;20054;-64
2023/03/03 11:31:04;;;;;;;24.73;7.25;;;;;;;;;;4982252;28;21398;-66
2023/03/03 11:33:35;;;;;;;25.40;7.53;;;;;;;;;;4989882;28;20101;-65
2023/03/03 11:36:10;;;;;;;34.22;6.88;;;;;;;;;;4990447;28;20062;-62
2023/03/03 11:38:49;;;;;;;17.42;6.75;;;;;;;;;;4980675;28;20069;-64
2023/03/03 11:41:24;;;;;;;20.95;5.70;;;;;;;;;;4975551;28;20347;-66
2023/03/03 11:43:52;;;;;;;;;;;;;;;;;;4988545;28;20134;-64
2023/03/03 11:46:25;;;;;;;16.45;7.18;;;;;;;;;;4978176;28;20376;-64
2023/03/03 11:48:59;;;;;;;12.15;5.15;;;;;;;;;;4982786;28;20090;-65
2023/03/03 11:51:33;;;;;;;24.23;7.00;;;;;;;;;;4972853;28;20047;-65
2023/03/03 11:54:04;;;;;;;19.70;7.25;;;;;;;;;;4979214;28;20050;-66
2023/03/03 11:56:35;;;;;;;11.20;4.82;;;;;;;;;;4979936;28;20046;-64
2023/03/03 11:59:08;;;;;;;16.05;7.05;;;;;;;;;;4985916;28;20047;-64
2023/03/03 12:01:42;;;;;;;24.17;7.15;;;;;;;;;;4986467;28;20056;-66
2023/03/03 12:04:13;;;;;;;29.23;6.93;;;;;;;;;;4981916;28;20147;-65
2023/03/03 12:06:50;;;;;;;18.27;6.18;;;;;;;;;;4986872;28;20058;-67
2023/03/03 12:09:24;;;;;;;28.80;7.47;;;;;;;;;;4979708;28;20128;-64
2023/03/03 12:11:54;;;;;;;19.88;5.40;;;;;;;;;;4986152;28;20573;-64
2023/03/03 12:14:29;;;;;;;24.65;7.68;;;;;;;;;;4991876;28;20062;-66
2023/03/03 12:17:00;;;;;;;12.98;5.03;;;;;;;;;;4988772;28;20069;-67
2023/03/03 12:19:33;;;;;;;16.67;6.97;;;;;;;;;;4991618;28;20574;-66
2023/03/03 12:22:08;;;;;;;14.90;5.40;;;;;;;;;;4989294;28;20046;-66
2023/03/03 12:24:49;;;;;;;13.98;5.68;;;;;;;;;;4982770;28;20057;-65
2023/03/03 12:27:22;;;;;;;15.43;4.55;;;;;;;;;;4990150;28;20078;-67
2023/03/03 12:29:56;;;;;;;13.23;5.72;;;;;;;;;;4991556;28;20492;-67
2023/03/03 12:32:33;;;;;;;21.00;8.27;;;;;;;;;;4988092;28;20058;-66
2023/03/03 12:35:06;;;;;;;27.55;6.03;;;;;;;;;;4987155;28;20054;-65
2023/03/03 12:37:52;;;;;;;19.30;6.75;;;;;;;;;;4985026;28;20419;-68
2023/03/03 12:40:22;;;;;;;22.13;7.10;;;;;;;;;;4980875;28;20054;-68
2023/03/03 12:42:59;;;;;;;12.68;6.07;;;;;;;;;;4985543;28;20054;-69
2023/03/03 12:45:37;;;;;;;19.90;6.95;;;;;;;;;;4986234;28;20491;-65
2023/03/03 12:48:09;;;;;;;16.65;5.63;;;;;;;;;;4987417;28;20046;-68
2023/03/03 12:50:44;;;;;;;24.00;7.97;;;;;;;;;;4981065;28;20491;-69
2023/03/03 12:53:18;;;;;;;15.73;6.80;;;;;;;;;;4988641;28;20075;-69
2023/03/03 12:55:49;;;;;;;19.85;6.15;;;;;;;;;;4987153;28;20141;-69
2023/03/03 12:58:24;;;;;;;23.40;7.25;;;;;;;;;;4987790;28;20674;-68
2023/03/03 13:00:56;;;;;;;10.88;5.18;;;;;;;;;;4980113;28;20078;-65
2023/03/03 13:03:33;;;;;;;14.52;4.95;;;;;;;;;;4986291;28;20069;-66
2023/03/03 13:06:19;;;;;;;17.48;6.70;;;;;;;;;;4985468;28;20550;-68
2023/03/03 13:08:56;;;;;;;20.38;6.40;;;;;;;;;;4980104;28;20503;-68
2023/03/03 13:11:30;;;;;;;20.45;6.78;;;;;;;;;;4981308;28;20061;-69
2023/03/03 13:14:04;;;;;;;21.77;8.15;;;;;;;;;;4981309;28;20136;-68
2023/03/03 13:16:35;;;;;;;24.85;8.00;;;;;;;;;;4977131;28;20046;-68
2023/03/03 13:19:12;;;;;;;14.70;5.00;;;;;;;;;;4980079;28;20156;-68
2023/03/03 13:21:42;;;;;;;15.55;5.18;;;;;;;;;;4986914;28;20046;-67
2023/03/03 13:24:16;;;;;;;17.02;5.10;;;;;;;;;;4979346;28;20050;-67
2023/03/03 13:26:48;;;;;;;25.42;6.63;;;;;;;;;;4979565;28;20113;-68
2023/03/03 13:29:21;;;;;;;17.55;6.95;;;;;;;;;;4987777;28;20058;-68
2023/03/03 13:31:50;;;;;;;22.58;5.93;;;;;;;;;;4987136;28;20109;-68
2023/03/03 13:34:25;;;;;;;14.52;5.93;;;;;;;;;;4986782;28;20050;-68
2023/03/03 13:36:54;;;;;;;;;;;;;;;;;;4984990;28;20347;-66
2023/03/03 13:39:23;;;;;;;17.38;5.50;;;;;;;;;;4984310;28;19937;-66
2023/03/03 13:41:56;;;;;;;14.38;4.55;;;;;;;;;;4989066;28;20622;-69
2023/03/03 13:44:29;;;;;;;18.67;6.50;;;;;;;;;;4988162;28;20410;-68
2023/03/03 13:47:01;;;;;;;18.55;7.07;;;;;;;;;;4982747;28;20113;-67
2023/03/03 13:49:42;;;;;;;18.33;5.10;;;;;;;;;;4988523;28;20050;-69
2023/03/03 13:52:15;;;;;;;18.42;7.07;;;;;;;;;;4987914;28;20065;-67
2023/03/03 13:54:54;;;;;;;17.08;6.13;;;;;;;;;;4989065;28;20082;-66
2023/03/03 13:57:32;;;;;;;23.58;7.35;;;;;;;;;;4986161;28;20046;-69
2023/03/03 14:00:06;;;;;;;14.88;5.88;;;;;;;;;;4985341;28;20057;-68
2023/03/03 14:02:44;;;;;;;17.02;5.43;;;;;;;;;;4986254;28;20061;-66
2023/03/03 14:05:17;;;;;;;13.52;4.95;;;;;;;;;;4991229;28;20136;-68
2023/03/03 14:07:49;;;;;;;15.48;5.88;;;;;;;;;;4987807;28;20058;-68
2023/03/03 14:10:20;;;;;;;20.27;7.47;;;;;;;;;;4981260;28;20050;-68
2023/03/03 14:12:52;;;;;;;16.08;4.85;;;;;;;;;;4976336;28;20047;-68
2023/03/03 14:15:23;;;;;;;13.43;5.72;;;;;;;;;;4983045;28;20043;-65
2023/03/03 14:18:07;;;;;;;17.60;5.15;;;;;;;;;;4981931;28;20170;-69
2023/03/03 14:20:39;;;;;;;14.98;5.20;;;;;;;;;;4985688;28;20042;-68
2023/03/03 14:23:11;;;;;;;19.17;5.30;;;;;;;;;;4988678;28;20153;-68
2023/03/03 14:25:54;;;;;;;12.18;4.80;;;;;;;;;;4982200;28;20078;-65
2023/03/03 14:28:24;;;;;;;18.70;6.75;;;;;;;;;;4986532;28;20052;-69
2023/03/03 14:30:54;;;;;;;19.80;6.60;;;;;;;;;;4986971;28;20549;-67
2023/03/03 14:33:28;;;;;;;16.45;5.47;;;;;;;;;;4989057;28;20050;-69
2023/03/03 14:36:05;;;;;;;26.42;6.97;;;;;;;;;;4987029;28;20042;-69
2023/03/03 14:38:37;;;;;;;20.90;7.20;;;;;;;;;;4989148;28;20074;-66
2023/03/03 14:41:13;;;;;;;25.92;7.90;;;;;;;;;;4985096;28;20126;-68
2023/03/03 14:43:43;;;;;;;17.35;6.43;;;;;;;;;;4987694;28;20430;-69
2023/03/03 14:46:32;;;;;;;13.23;5.47;;;;;;;;;;4984515;28;20136;-68
2023/03/03 14:49:02;;;;;;;19.08;7.43;;;;;;;;;;4958612;28;20295;-63
2023/03/03 14:51:34;;;;;;;21.38;6.60;;;;;;;;;;4986010;28;20484;-70
2023/03/03 14:54:08;;;;;;;13.07;5.82;;;;;;;;;;4986155;28;20050;-68
2023/03/03 14:56:38;;;;;;;22.07;7.47;;;;;;;;;;4992668;28;20046;-68
2023/03/03 14:59:18;;;;;;;18.23;5.07;;;;;;;;;;4990315;28;20050;-69
2023/03/03 15:01:47;;;;;;;16.58;5.57;;;;;;;;;;4988247;28;20130;-69